sensor_id;sensor_type;location;lat;lon;timestamp;pressure;altitude;pressure_sealevel;temperature;humidity
11676;BME280;5894;42.768;23.404;2023-07-13T00:01:52;95872.31;;;23.64;100.00
11676;BME280;5894;42.768;23.404;2023-07-13T00:04:22;95872.28;;;23.60;100.00
11676;BME280;5894;42.768;23.404;2023-07-13T00:06:52;95866.09;;;23.53;100.00
11676;BME280;5894;42.768;23.404;2023-07-13T00:09:20;95867.22;;;23.52;100.00
11676;BME280;5894;42.768;23.404;2023-07-13T00:11:52;95871.84;;;23.51;100.00
11676;BME280;5894;42.768;23.404;2023-07-13T00:14:19;95869.88;;;23.48;100.00
11676;BME280;5894;42.768;23.404;2023-07-13T00:16:47;95869.88;;;23.45;100.00
11676;BME280;5894;42.768;23.404;2023-07-13T00:19:14;95863.28;;;23.38;100.00
11676;BME280;5894;42.768;23.404;2023-07-13T00:21:41;95858.25;;;23.33;100.00
11676;BME280;5894;42.768;23.404;2023-07-13T00:24:13;95854.00;;;23.29;100.00
11676;BME280;5894;42.768;23.404;2023-07-13T00:26:41;95828.53;;;23.16;100.00
11676;BME280;5894;42.768;23.404;2023-07-13T00:29:10;95846.66;;;23.26;100.00
11676;BME280;5894;42.768;23.404;2023-07-13T00:31:37;95845.13;;;23.21;100.00
11676;BME280;5894;42.768;23.404;2023-07-13T00:34:04;95853.19;;;23.21;100.00
11676;BME280;5894;42.768;23.404;2023-07-13T00:36:31;95848.59;;;23.22;100.00
11676;BME280;5894;42.768;23.404;2023-07-13T00:38:59;95846.63;;;23.19;100.00
11676;BME280;5894;42.768;23.404;2023-07-13T00:41:27;95848.16;;;23.16;100.00
11676;BME280;5894;42.768;23.404;2023-07-13T00:43:55;95839.31;;;23.12;100.00
11676;BME280;5894;42.768;23.404;2023-07-13T00:46:26;95841.19;;;23.08;100.00
11676;BME280;5894;42.768;23.404;2023-07-13T00:48:54;95844.63;;;23.05;100.00
11676;BME280;5894;42.768;23.404;2023-07-13T00:51:31;95797.91;;;22.73;100.00
11676;BME280;5894;42.768;23.404;2023-07-13T00:54:05;95840.75;;;22.99;100.00
11676;BME280;5894;42.768;23.404;2023-07-13T00:56:35;95839.56;;;22.96;100.00
11676;BME280;5894;42.768;23.404;2023-07-13T00:59:05;95840.34;;;22.93;100.00
11676;BME280;5894;42.768;23.404;2023-07-13T01:01:33;95836.84;;;22.89;100.00
11676;BME280;5894;42.768;23.404;2023-07-13T01:04:02;95846.41;;;22.87;100.00
11676;BME280;5894;42.768;23.404;2023-07-13T01:06:34;95839.13;;;22.84;100.00
11676;BME280;5894;42.768;23.404;2023-07-13T01:09:02;95844.47;;;22.80;100.00
11676;BME280;5894;42.768;23.404;2023-07-13T01:11:30;95840.53;;;22.74;100.00
11676;BME280;5894;42.768;23.404;2023-07-13T01:13:59;95840.16;;;22.72;100.00
11676;BME280;5894;42.768;23.404;2023-07-13T01:16:30;95848.59;;;22.70;100.00
11676;BME280;5894;42.768;23.404;2023-07-13T01:18:58;95842.41;;;22.66;100.00
11676;BME280;5894;42.768;23.404;2023-07-13T01:21:29;95838.16;;;22.62;100.00
11676;BME280;5894;42.768;23.404;2023-07-13T01:23:58;95830.84;;;22.62;100.00
11676;BME280;5894;42.768;23.404;2023-07-13T01:26:26;95836.97;;;22.59;100.00
11676;BME280;5894;42.768;23.404;2023-07-13T01:28:53;95831.97;;;22.58;100.00
11676;BME280;5894;42.768;23.404;2023-07-13T01:31:22;95835.00;;;22.56;100.00
11676;BME280;5894;42.768;23.404;2023-07-13T01:33:50;95845.75;;;22.53;100.00
11676;BME280;5894;42.768;23.404;2023-07-13T01:36:20;95838.41;;;22.50;100.00
11676;BME280;5894;42.768;23.404;2023-07-13T01:38:49;95839.19;;;22.50;100.00
11676;BME280;5894;42.768;23.404;2023-07-13T01:41:16;95833.78;;;22.47;100.00
11676;BME280;5894;42.768;23.404;2023-07-13T01:43:43;95832.22;;;22.42;100.00
11676;BME280;5894;42.768;23.404;2023-07-13T01:46:10;95827.94;;;22.38;100.00
11676;BME280;5894;42.768;23.404;2023-07-13T01:48:37;95821.78;;;22.37;100.00
11676;BME280;5894;42.768;23.404;2023-07-13T01:51:04;95827.91;;;22.34;100.00
11676;BME280;5894;42.768;23.404;2023-07-13T01:53:32;95832.91;;;22.32;100.00
11676;BME280;5894;42.768;23.404;2023-07-13T01:56:02;95829.81;;;22.30;100.00
11676;BME280;5894;42.768;23.404;2023-07-13T01:58:29;95835.19;;;22.30;100.00
11676;BME280;5894;42.768;23.404;2023-07-13T02:00:56;95836.31;;;22.29;100.00
11676;BME280;5894;42.768;23.404;2023-07-13T02:03:23;95841.22;;;22.23;100.00
11676;BME280;5894;42.768;23.404;2023-07-13T02:05:50;95845.84;;;22.23;100.00
11676;BME280;5894;42.768;23.404;2023-07-13T02:08:17;95850.06;;;22.20;100.00
11676;BME280;5894;42.768;23.404;2023-07-13T02:10:46;95841.16;;;22.16;100.00
11676;BME280;5894;42.768;23.404;2023-07-13T02:13:14;95833.06;;;22.13;100.00
11676;BME280;5894;42.768;23.404;2023-07-13T02:15:41;95847.25;;;22.10;100.00
11676;BME280;5894;42.768;23.404;2023-07-13T02:18:08;95847.63;;;22.08;100.00
11676;BME280;5894;42.768;23.404;2023-07-13T02:20:36;95843.75;;;22.06;100.00
11676;BME280;5894;42.768;23.404;2023-07-13T02:23:03;95845.59;;;22.02;100.00
11676;BME280;5894;42.768;23.404;2023-07-13T02:25:30;95841.78;;;21.99;100.00
11676;BME280;5894;42.768;23.404;2023-07-13T02:27:57;95848.56;;;21.93;100.00
11676;BME280;5894;42.768;23.404;2023-07-13T02:30:27;95855.47;;;21.94;100.00
11676;BME280;5894;42.768;23.404;2023-07-13T02:32:55;95836.13;;;21.78;100.00
11676;BME280;5894;42.768;23.404;2023-07-13T02:35:22;95855.06;;;21.88;100.00
11676;BME280;5894;42.768;23.404;2023-07-13T02:37:49;95853.50;;;21.87;100.00
11676;BME280;5894;42.768;23.404;2023-07-13T02:40:17;95850.81;;;21.87;100.00
11676;BME280;5894;42.768;23.404;2023-07-13T02:42:44;95851.19;;;21.86;100.00
11676;BME280;5894;42.768;23.404;2023-07-13T02:45:11;95852.69;;;21.83;100.00
11676;BME280;5894;42.768;23.404;2023-07-13T02:47:42;95859.97;;;21.83;100.00
11676;BME280;5894;42.768;23.404;2023-07-13T02:50:10;95863.41;;;21.83;100.00
11676;BME280;5894;42.768;23.404;2023-07-13T02:52:37;95857.59;;;21.78;100.00
11676;BME280;5894;42.768;23.404;2023-07-13T02:55:05;95785.28;;;21.29;100.00
11676;BME280;5894;42.768;23.404;2023-07-13T02:57:32;95859.81;;;21.72;100.00
11676;BME280;5894;42.768;23.404;2023-07-13T03:00:00;95862.19;;;21.77;100.00
11676;BME280;5894;42.768;23.404;2023-07-13T03:02:31;95865.16;;;21.69;100.00
11676;BME280;5894;42.768;23.404;2023-07-13T03:04:59;95864.75;;;21.67;100.00
11676;BME280;5894;42.768;23.404;2023-07-13T03:07:27;95862.78;;;21.64;100.00
11676;BME280;5894;42.768;23.404;2023-07-13T03:09:56;95824.47;;;21.33;100.00
11676;BME280;5894;42.768;23.404;2023-07-13T03:12:26;95862.34;;;21.58;100.00
11676;BME280;5894;42.768;23.404;2023-07-13T03:14:54;95864.25;;;21.57;100.00
11676;BME280;5894;42.768;23.404;2023-07-13T03:17:22;95870.34;;;21.54;100.00
11676;BME280;5894;42.768;23.404;2023-07-13T03:19:49;95865.75;;;21.55;100.00
11676;BME280;5894;42.768;23.404;2023-07-13T03:22:19;95869.94;;;21.52;100.00
11676;BME280;5894;42.768;23.404;2023-07-13T03:24:47;95870.72;;;21.53;100.00
11676;BME280;5894;42.768;23.404;2023-07-13T03:27:15;95875.31;;;21.52;100.00
11676;BME280;5894;42.768;23.404;2023-07-13T03:29:43;95861.09;;;21.52;100.00
11676;BME280;5894;42.768;23.404;2023-07-13T03:32:12;95863.78;;;21.52;100.00
11676;BME280;5894;42.768;23.404;2023-07-13T03:34:39;95866.44;;;21.48;100.00
11676;BME280;5894;42.768;23.404;2023-07-13T03:37:06;95864.91;;;21.47;100.00
11676;BME280;5894;42.768;23.404;2023-07-13T03:39:37;95872.59;;;21.49;100.00
11676;BME280;5894;42.768;23.404;2023-07-13T03:42:05;95882.94;;;21.50;100.00
11676;BME280;5894;42.768;23.404;2023-07-13T03:44:32;95871.84;;;21.52;100.00
11676;BME280;5894;42.768;23.404;2023-07-13T03:46:59;95872.97;;;21.51;100.00
11676;BME280;5894;42.768;23.404;2023-07-13T03:49:26;95868.75;;;21.50;100.00
11676;BME280;5894;42.768;23.404;2023-07-13T03:51:53;95872.63;;;21.52;100.00
11676;BME280;5894;42.768;23.404;2023-07-13T03:54:20;95871.06;;;21.51;100.00
11676;BME280;5894;42.768;23.404;2023-07-13T03:56:49;95874.94;;;21.54;100.00
11676;BME280;5894;42.768;23.404;2023-07-13T03:59:17;95870.66;;;21.49;100.00
11676;BME280;5894;42.768;23.404;2023-07-13T04:01:45;95886.03;;;21.52;100.00
11676;BME280;5894;42.768;23.404;2023-07-13T04:04:12;95875.31;;;21.52;100.00
11676;BME280;5894;42.768;23.404;2023-07-13T04:06:41;95873.81;;;21.55;100.00
11676;BME280;5894;42.768;23.404;2023-07-13T04:09:11;95878.03;;;21.56;100.00
11676;BME280;5894;42.768;23.404;2023-07-13T04:11:38;95817.34;;;21.18;100.00
11676;BME280;5894;42.768;23.404;2023-07-13T04:14:07;95877.69;;;21.57;100.00
11676;BME280;5894;42.768;23.404;2023-07-13T04:16:34;95883.81;;;21.58;100.00
11676;BME280;5894;42.768;23.404;2023-07-13T04:19:01;95880.81;;;21.63;100.00
11676;BME280;5894;42.768;23.404;2023-07-13T04:21:29;95883.19;;;21.68;100.00
11676;BME280;5894;42.768;23.404;2023-07-13T04:23:57;95886.25;;;21.70;100.00
11676;BME280;5894;42.768;23.404;2023-07-13T04:26:24;95887.03;;;21.71;100.00
11676;BME280;5894;42.768;23.404;2023-07-13T04:28:51;95883.97;;;21.72;100.00
11676;BME280;5894;42.768;23.404;2023-07-13T04:31:20;95889.78;;;21.74;100.00
11676;BME280;5894;42.768;23.404;2023-07-13T04:33:48;95889.78;;;21.74;100.00
11676;BME280;5894;42.768;23.404;2023-07-13T04:36:16;95898.69;;;21.82;100.00
11676;BME280;5894;42.768;23.404;2023-07-13T04:38:43;95899.88;;;21.84;100.00
11676;BME280;5894;42.768;23.404;2023-07-13T04:41:11;95894.53;;;21.88;100.00
11676;BME280;5894;42.768;23.404;2023-07-13T04:43:39;95891.88;;;21.88;100.00
11676;BME280;5894;42.768;23.404;2023-07-13T04:46:08;95844.28;;;21.55;100.00
11676;BME280;5894;42.768;23.404;2023-07-13T04:48:37;95901.13;;;21.94;100.00
11676;BME280;5894;42.768;23.404;2023-07-13T04:51:04;95896.94;;;21.96;100.00
11676;BME280;5894;42.768;23.404;2023-07-13T04:53:31;95897.03;;;22.00;100.00
11676;BME280;5894;42.768;23.404;2023-07-13T04:56:00;95905.09;;;22.04;100.00
11676;BME280;5894;42.768;23.404;2023-07-13T04:58:27;95899.06;;;22.10;100.00
11676;BME280;5894;42.768;23.404;2023-07-13T05:01:00;95891.31;;;22.05;100.00
11676;BME280;5894;42.768;23.404;2023-07-13T05:03:27;95907.59;;;22.19;100.00
11676;BME280;5894;42.768;23.404;2023-07-13T05:05:56;95908.03;;;22.25;100.00
11676;BME280;5894;42.768;23.404;2023-07-13T05:08:24;95905.44;;;22.32;100.00
11676;BME280;5894;42.768;23.404;2023-07-13T05:10:51;95911.28;;;22.41;100.00
11676;BME280;5894;42.768;23.404;2023-07-13T05:13:18;95911.75;;;22.50;100.00
11676;BME280;5894;42.768;23.404;2023-07-13T05:15:47;95902.25;;;22.63;100.00
11676;BME280;5894;42.768;23.404;2023-07-13T05:18:21;95908.94;;;22.77;100.00
11676;BME280;5894;42.768;23.404;2023-07-13T05:20:57;95907.94;;;22.92;100.00
11676;BME280;5894;42.768;23.404;2023-07-13T05:23:24;95910.34;;;23.08;100.00
11676;BME280;5894;42.768;23.404;2023-07-13T05:25:51;95906.63;;;23.26;100.00
11676;BME280;5894;42.768;23.404;2023-07-13T05:28:18;95915.22;;;23.42;100.00
11676;BME280;5894;42.768;23.404;2023-07-13T05:30:45;95915.72;;;23.59;100.00
11676;BME280;5894;42.768;23.404;2023-07-13T05:33:12;95911.19;;;23.73;100.00
11676;BME280;5894;42.768;23.404;2023-07-13T05:35:39;95927.81;;;23.93;100.00
11676;BME280;5894;42.768;23.404;2023-07-13T05:38:08;95924.06;;;24.08;100.00
11676;BME280;5894;42.768;23.404;2023-07-13T05:40:35;95926.44;;;24.24;100.00
11676;BME280;5894;42.768;23.404;2023-07-13T05:43:03;95929.56;;;24.40;100.00
11676;BME280;5894;42.768;23.404;2023-07-13T05:45:30;95928.81;;;24.54;100.00
11676;BME280;5894;42.768;23.404;2023-07-13T05:47:57;95930.38;;;24.66;100.00
11676;BME280;5894;42.768;23.404;2023-07-13T05:50:25;95936.59;;;24.80;100.00
11676;BME280;5894;42.768;23.404;2023-07-13T05:52:52;95933.13;;;24.91;100.00
11676;BME280;5894;42.768;23.404;2023-07-13T05:55:20;95921.19;;;25.02;100.00
11676;BME280;5894;42.768;23.404;2023-07-13T05:57:48;95923.13;;;25.16;100.00
11676;BME280;5894;42.768;23.404;2023-07-13T06:00:15;95923.50;;;25.25;100.00
11676;BME280;5894;42.768;23.404;2023-07-13T06:02:43;95917.72;;;25.37;100.00
11676;BME280;5894;42.768;23.404;2023-07-13T06:05:09;95928.50;;;25.48;100.00
11676;BME280;5894;42.768;23.404;2023-07-13T06:07:38;95908.81;;;25.47;100.00
11676;BME280;5894;42.768;23.404;2023-07-13T06:10:05;95928.09;;;25.67;100.00
11676;BME280;5894;42.768;23.404;2023-07-13T06:12:34;95936.56;;;25.80;99.32
11676;BME280;5894;42.768;23.404;2023-07-13T06:15:01;95931.16;;;25.83;99.83
11676;BME280;5894;42.768;23.404;2023-07-13T06:17:28;95932.28;;;25.93;99.57
11676;BME280;5894;42.768;23.404;2023-07-13T06:19:55;95932.25;;;26.04;99.41
11676;BME280;5894;42.768;23.404;2023-07-13T06:22:22;95934.50;;;26.16;100.00
11676;BME280;5894;42.768;23.404;2023-07-13T06:24:49;95940.25;;;26.28;100.00
11676;BME280;5894;42.768;23.404;2023-07-13T06:27:17;95938.28;;;26.40;100.00
11676;BME280;5894;42.768;23.404;2023-07-13T06:29:45;95936.28;;;26.51;98.77
11676;BME280;5894;42.768;23.404;2023-07-13T06:32:12;95893.91;;;26.34;96.90
11676;BME280;5894;42.768;23.404;2023-07-13T06:34:39;95936.59;;;26.67;96.84
11676;BME280;5894;42.768;23.404;2023-07-13T06:37:06;95938.09;;;26.75;95.36
11676;BME280;5894;42.768;23.404;2023-07-13T06:39:33;95931.44;;;26.83;94.07
11676;BME280;5894;42.768;23.404;2023-07-13T06:42:01;95927.94;;;26.93;93.13
11676;BME280;5894;42.768;23.404;2023-07-13T06:44:28;95917.78;;;27.04;92.27
11676;BME280;5894;42.768;23.404;2023-07-13T06:46:56;95918.16;;;27.07;89.14
11676;BME280;5894;42.768;23.404;2023-07-13T06:49:23;95911.50;;;27.15;89.74
11676;BME280;5894;42.768;23.404;2023-07-13T06:51:50;95911.44;;;27.22;89.20
11676;BME280;5894;42.768;23.404;2023-07-13T06:54:17;95914.81;;;27.36;86.70
11676;BME280;5894;42.768;23.404;2023-07-13T06:56:44;95926.28;;;27.51;83.96
11676;BME280;5894;42.768;23.404;2023-07-13T06:59:11;95922.31;;;27.63;82.80
11676;BME280;5894;42.768;23.404;2023-07-13T07:01:38;95925.28;;;27.75;81.97
11676;BME280;5894;42.768;23.404;2023-07-13T07:04:07;95920.88;;;27.89;80.71
11676;BME280;5894;42.768;23.404;2023-07-13T07:06:34;95931.97;;;28.01;76.89
11676;BME280;5894;42.768;23.404;2023-07-13T07:09:01;95918.69;;;28.10;78.47
11676;BME280;5894;42.768;23.404;2023-07-13T07:11:28;95922.72;;;28.29;79.54
11676;BME280;5894;42.768;23.404;2023-07-13T07:13:55;95925.97;;;28.47;77.80
11676;BME280;5894;42.768;23.404;2023-07-13T07:16:25;95907.25;;;28.57;76.23
11676;BME280;5894;42.768;23.404;2023-07-13T07:18:52;95912.44;;;28.74;75.43
11676;BME280;5894;42.768;23.404;2023-07-13T07:21:20;95917.97;;;28.94;74.71
11676;BME280;5894;42.768;23.404;2023-07-13T07:23:48;95919.22;;;29.13;74.81
11676;BME280;5894;42.768;23.404;2023-07-13T07:26:15;95916.97;;;29.31;68.79
11676;BME280;5894;42.768;23.404;2023-07-13T07:28:42;95919.47;;;29.45;71.58
11676;BME280;5894;42.768;23.404;2023-07-13T07:31:10;95914.06;;;29.65;70.68
11676;BME280;5894;42.768;23.404;2023-07-13T07:33:37;95910.75;;;29.77;63.83
11676;BME280;5894;42.768;23.404;2023-07-13T07:36:04;95909.34;;;29.89;63.32
11676;BME280;5894;42.768;23.404;2023-07-13T07:38:33;95904.91;;;29.99;64.61
11676;BME280;5894;42.768;23.404;2023-07-13T07:41:03;95899.31;;;30.25;66.04
11676;BME280;5894;42.768;23.404;2023-07-13T07:43:30;95907.31;;;30.52;65.22
11676;BME280;5894;42.768;23.404;2023-07-13T07:45:57;95895.09;;;30.77;62.06
11676;BME280;5894;42.768;23.404;2023-07-13T07:48:24;95895.09;;;30.93;59.26
11676;BME280;5894;42.768;23.404;2023-07-13T07:50:51;95897.16;;;31.21;57.32
11676;BME280;5894;42.768;23.404;2023-07-13T07:53:18;95893.03;;;31.46;58.39
11676;BME280;5894;42.768;23.404;2023-07-13T07:55:46;95894.69;;;31.72;57.18
11676;BME280;5894;42.768;23.404;2023-07-13T07:58:14;95891.50;;;32.02;56.82
11676;BME280;5894;42.768;23.404;2023-07-13T08:00:42;95890.41;;;32.29;53.43
11676;BME280;5894;42.768;23.404;2023-07-13T08:03:09;95891.59;;;32.53;53.70
11676;BME280;5894;42.768;23.404;2023-07-13T08:05:36;95884.75;;;32.74;52.16
11676;BME280;5894;42.768;23.404;2023-07-13T08:08:03;95880.47;;;32.98;50.84
11676;BME280;5894;42.768;23.404;2023-07-13T08:10:30;95882.38;;;33.23;50.63
11676;BME280;5894;42.768;23.404;2023-07-13T08:12:59;95873.94;;;33.43;50.64
11676;BME280;5894;42.768;23.404;2023-07-13T08:15:26;95871.19;;;33.65;51.26
11676;BME280;5894;42.768;23.404;2023-07-13T08:17:53;95879.00;;;33.88;50.59
11676;BME280;5894;42.768;23.404;2023-07-13T08:20:20;95863.00;;;34.08;50.91
11676;BME280;5894;42.768;23.404;2023-07-13T08:22:47;95866.19;;;34.29;49.48
11676;BME280;5894;42.768;23.404;2023-07-13T08:25:15;95870.59;;;34.57;50.07
11676;BME280;5894;42.768;23.404;2023-07-13T08:27:42;95862.84;;;34.65;48.65
11676;BME280;5894;42.768;23.404;2023-07-13T08:30:10;95859.63;;;34.97;49.12
11676;BME280;5894;42.768;23.404;2023-07-13T08:32:37;95852.63;;;35.23;48.71
11676;BME280;5894;42.768;23.404;2023-07-13T08:35:05;95860.16;;;35.50;48.12
11676;BME280;5894;42.768;23.404;2023-07-13T08:37:33;95853.13;;;35.67;47.13
11676;BME280;5894;42.768;23.404;2023-07-13T08:40:00;95841.84;;;35.84;46.07
11676;BME280;5894;42.768;23.404;2023-07-13T08:42:36;95847.34;;;35.84;45.98
11676;BME280;5894;42.768;23.404;2023-07-13T08:45:17;95844.28;;;35.91;44.08
11676;BME280;5894;42.768;23.404;2023-07-13T08:50:37;95855.03;;;36.31;45.95
11676;BME280;5894;42.768;23.404;2023-07-13T08:53:11;95852.59;;;36.33;43.44
11676;BME280;5894;42.768;23.404;2023-07-13T08:55:39;95855.03;;;36.31;42.35
11676;BME280;5894;42.768;23.404;2023-07-13T08:58:12;95857.31;;;36.32;42.23
11676;BME280;5894;42.768;23.404;2023-07-13T09:00:48;95877.19;;;36.09;40.71
11676;BME280;5894;42.768;23.404;2023-07-13T09:03:20;95879.69;;;35.80;42.81
11676;BME280;5894;42.768;23.404;2023-07-13T09:05:56;95879.66;;;35.71;43.06
11676;BME280;5894;42.768;23.404;2023-07-13T09:08:45;95876.13;;;35.43;42.07
11676;BME280;5894;42.768;23.404;2023-07-13T09:11:23;95871.53;;;35.21;42.29
11676;BME280;5894;42.768;23.404;2023-07-13T09:14:00;95873.00;;;34.95;42.57
11676;BME280;5894;42.768;23.404;2023-07-13T09:16:31;95871.91;;;34.83;43.90
11676;BME280;5894;42.768;23.404;2023-07-13T09:19:04;95862.41;;;34.66;42.67
11676;BME280;5894;42.768;23.404;2023-07-13T09:21:36;95859.56;;;34.48;43.22
11676;BME280;5894;42.768;23.404;2023-07-13T09:24:26;95860.72;;;34.07;44.94
11676;BME280;5894;42.768;23.404;2023-07-13T09:26:55;95860.88;;;34.03;46.93
11676;BME280;5894;42.768;23.404;2023-07-13T09:29:32;95863.28;;;34.01;47.40
11676;BME280;5894;42.768;23.404;2023-07-13T09:32:06;95862.78;;;33.94;45.89
11676;BME280;5894;42.768;23.404;2023-07-13T09:34:34;95855.41;;;33.81;47.23
11676;BME280;5894;42.768;23.404;2023-07-13T09:37:01;95859.59;;;33.73;47.07
11676;BME280;5894;42.768;23.404;2023-07-13T09:39:33;95855.94;;;33.54;46.98
11676;BME280;5894;42.768;23.404;2023-07-13T09:42:07;95857.38;;;33.46;47.18
11676;BME280;5894;42.768;23.404;2023-07-13T09:44:53;95855.38;;;33.25;47.41
11676;BME280;5894;42.768;23.404;2023-07-13T09:47:24;95839.09;;;33.22;47.08
11676;BME280;5894;42.768;23.404;2023-07-13T09:49:57;95832.66;;;33.15;46.35
11676;BME280;5894;42.768;23.404;2023-07-13T09:52:25;95832.78;;;33.12;47.57
11676;BME280;5894;42.768;23.404;2023-07-13T09:54:54;95830.06;;;33.12;47.19
11676;BME280;5894;42.768;23.404;2023-07-13T09:57:26;95827.31;;;33.12;48.41
11676;BME280;5894;42.768;23.404;2023-07-13T09:59:55;95825.03;;;33.10;51.04
11676;BME280;5894;42.768;23.404;2023-07-13T10:02:28;95823.81;;;33.11;53.16
11676;BME280;5894;42.768;23.404;2023-07-13T10:04:57;95815.41;;;33.06;55.77
11676;BME280;5894;42.768;23.404;2023-07-13T10:07:25;95820.91;;;32.93;47.37
11676;BME280;5894;42.768;23.404;2023-07-13T10:09:52;95815.56;;;32.90;49.30
11676;BME280;5894;42.768;23.404;2023-07-13T10:12:21;95813.28;;;32.88;50.64
11676;BME280;5894;42.768;23.404;2023-07-13T10:14:51;95809.25;;;32.80;50.31
11676;BME280;5894;42.768;23.404;2023-07-13T10:21:15;95806.97;;;32.78;49.75
11676;BME280;5894;42.768;23.404;2023-07-13T10:23:45;95804.25;;;32.78;47.42
11676;BME280;5894;42.768;23.404;2023-07-13T10:26:18;95795.59;;;32.80;48.85
11676;BME280;5894;42.768;23.404;2023-07-13T10:28:50;95791.66;;;32.81;50.94
11676;BME280;5894;42.768;23.404;2023-07-13T10:31:19;95791.03;;;32.77;49.84
11676;BME280;5894;42.768;23.404;2023-07-13T10:33:47;95792.41;;;32.81;48.87
11676;BME280;5894;42.768;23.404;2023-07-13T10:36:20;95792.19;;;32.89;46.90
11676;BME280;5894;42.768;23.404;2023-07-13T10:38:54;95782.56;;;32.97;44.66
11676;BME280;5894;42.768;23.404;2023-07-13T10:41:24;95779.56;;;33.04;44.17
11676;BME280;5894;42.768;23.404;2023-07-13T10:43:54;95769.41;;;33.04;45.85
11676;BME280;5894;42.768;23.404;2023-07-13T10:46:24;95776.72;;;33.07;46.44
11676;BME280;5894;42.768;23.404;2023-07-13T10:48:56;95763.38;;;33.09;46.38
11676;BME280;5894;42.768;23.404;2023-07-13T10:51:27;95762.94;;;33.11;47.21
11676;BME280;5894;42.768;23.404;2023-07-13T10:54:15;95754.59;;;33.14;45.68
11676;BME280;5894;42.768;23.404;2023-07-13T10:56:45;95756.78;;;33.20;44.33
11676;BME280;5894;42.768;23.404;2023-07-13T10:59:15;95760.50;;;33.26;43.78
11676;BME280;5894;42.768;23.404;2023-07-13T11:01:51;95713.22;;;33.03;43.94
11676;BME280;5894;42.768;23.404;2023-07-13T11:04:20;95751.91;;;33.36;43.41
11676;BME280;5894;42.768;23.404;2023-07-13T11:06:52;95746.66;;;33.42;43.18
11676;BME280;5894;42.768;23.404;2023-07-13T11:09:37;95742.00;;;33.51;41.81
11676;BME280;5894;42.768;23.404;2023-07-13T11:12:10;95742.31;;;33.53;43.25
11676;BME280;5894;42.768;23.404;2023-07-13T11:15:09;95744.47;;;33.59;39.64
11676;BME280;5894;42.768;23.404;2023-07-13T11:17:47;95730.97;;;33.64;38.40
11676;BME280;5894;42.768;23.404;2023-07-13T11:20:35;95732.25;;;33.72;39.89
11676;BME280;5894;42.768;23.404;2023-07-13T11:23:28;95730.78;;;33.80;36.17
11676;BME280;5894;42.768;23.404;2023-07-13T11:25:56;95726.63;;;33.76;36.67
11676;BME280;5894;42.768;23.404;2023-07-13T11:28:27;95729.38;;;33.76;37.75
11676;BME280;5894;42.768;23.404;2023-07-13T11:31:02;95721.22;;;33.85;35.98
11676;BME280;5894;42.768;23.404;2023-07-13T11:33:51;95718.34;;;33.88;38.21
11676;BME280;5894;42.768;23.404;2023-07-13T11:36:19;95663.66;;;33.67;38.16
11676;BME280;5894;42.768;23.404;2023-07-13T11:38:56;95714.47;;;34.08;39.75
11676;BME280;5894;42.768;23.404;2023-07-13T11:41:30;95715.88;;;34.21;39.25
11676;BME280;5894;42.768;23.404;2023-07-13T11:44:05;95708.78;;;34.33;40.70
11676;BME280;5894;42.768;23.404;2023-07-13T11:46:33;95703.34;;;34.42;40.80
11676;BME280;5894;42.768;23.404;2023-07-13T11:49:00;95704.88;;;34.52;41.00
11676;BME280;5894;42.768;23.404;2023-07-13T11:51:29;95701.25;;;34.65;42.10
11676;BME280;5894;42.768;23.404;2023-07-13T11:54:01;95699.91;;;34.78;41.20
11676;BME280;5894;42.768;23.404;2023-07-13T11:56:29;95697.31;;;34.93;40.31
11676;BME280;5894;42.768;23.404;2023-07-13T11:59:02;95692.28;;;35.10;40.31
11676;BME280;5894;42.768;23.404;2023-07-13T12:01:31;95682.09;;;35.28;39.45
11676;BME280;5894;42.768;23.404;2023-07-13T12:04:00;95689.03;;;35.57;38.92
11676;BME280;5894;42.768;23.404;2023-07-13T12:06:29;95689.88;;;35.81;37.69
11676;BME280;5894;42.768;23.404;2023-07-13T12:08:59;95686.28;;;35.99;36.07
11676;BME280;5894;42.768;23.404;2023-07-13T12:11:29;95687.53;;;36.31;36.57
11676;BME280;5894;42.768;23.404;2023-07-13T12:13:57;95675.25;;;36.65;34.12
11676;BME280;5894;42.768;23.404;2023-07-13T12:16:29;95670.47;;;36.89;34.31
11676;BME280;5894;42.768;23.404;2023-07-13T12:18:59;95663.81;;;37.20;33.25
11676;BME280;5894;42.768;23.404;2023-07-13T12:21:30;95670.47;;;37.42;33.86
11676;BME280;5894;42.768;23.404;2023-07-13T12:24:00;95665.72;;;37.72;32.31
11676;BME280;5894;42.768;23.404;2023-07-13T12:26:28;95669.50;;;37.90;32.81
11676;BME280;5894;42.768;23.404;2023-07-13T12:28:58;95627.44;;;37.89;30.99
11676;BME280;5894;42.768;23.404;2023-07-13T12:31:33;95655.25;;;38.26;31.13
11676;BME280;5894;42.768;23.404;2023-07-13T12:34:06;95649.13;;;38.37;30.94
11676;BME280;5894;42.768;23.404;2023-07-13T12:36:35;95643.66;;;38.42;32.82
11676;BME280;5894;42.768;23.404;2023-07-13T12:39:16;95644.66;;;38.60;33.74
11676;BME280;5894;42.768;23.404;2023-07-13T12:41:44;95635.28;;;38.72;31.78
11676;BME280;5894;42.768;23.404;2023-07-13T12:44:13;95624.38;;;38.83;31.63
11676;BME280;5894;42.768;23.404;2023-07-13T12:46:52;95633.97;;;39.13;35.12
11676;BME280;5894;42.768;23.404;2023-07-13T12:49:23;95636.41;;;39.06;31.96
11676;BME280;5894;42.768;23.404;2023-07-13T12:51:56;95620.94;;;39.14;29.85
11676;BME280;5894;42.768;23.404;2023-07-13T12:54:27;95615.78;;;39.27;30.19
11676;BME280;5894;42.768;23.404;2023-07-13T12:56:55;95632.06;;;39.51;31.88
11676;BME280;5894;42.768;23.404;2023-07-13T12:59:25;95624.66;;;39.68;31.62
11676;BME280;5894;42.768;23.404;2023-07-13T13:01:53;95599.91;;;39.48;31.73
11676;BME280;5894;42.768;23.404;2023-07-13T13:04:21;95623.47;;;39.75;30.58
11676;BME280;5894;42.768;23.404;2023-07-13T13:06:49;95620.72;;;39.80;32.44
11676;BME280;5894;42.768;23.404;2023-07-13T13:09:17;95620.72;;;39.80;31.75
11676;BME280;5894;42.768;23.404;2023-07-13T13:11:47;95613.28;;;39.92;32.93
11676;BME280;5894;42.768;23.404;2023-07-13T13:14:16;95614.59;;;39.96;33.39